Terminal Aerodrome Forecast
Issued by NWS North Platte, NE

Home | Current Version | Previous Version | Graphics & Text | Print | Product List | Glossary On
Versions: 1 2 3 4 5 6 7 8 9 10 11 12 13 14 15 16 17 18 19 20
516
FTUS43 KLBF 261401 AAA
TAFVTN
TAF AMD
KVTN 261401Z 2614/2712 VRB05KT P6SM OVC004
     FM261600 14005KT P6SM SCT003 BKN100
     FM261800 12005KT P6SM SCT050 BKN100
     FM262100 03005KT P6SM BKN050 OVC100
     FM270600 VRB03KT 5SM BR SCT006 BKN100=

USA.gov is the U.S. government's official web portal to all federal, state and local government web resources and services.